Time;durP1;ratioP1;P1;durP2;ratioP2;P2;SDS_P1;SDS_P2;PMS_P1;PMS_P2;Temp;Humidity;BMP_temperature;BMP_pressure;BME280_temperature;BME280_humidity;BME280_pressure;Samples;Min_cycle;Max_cycle;Signal;HPM_P1;HPM_P2
2023/07/02 00:02:16;;;;;;;14.23;8.48;;;;;;;16.36;94.77;100564.53;5056840;28;20036;-71
2023/07/02 00:04:42;;;;;;;15.27;8.30;;;;;;;16.34;94.37;100556.56;5060954;28;20103;-74
2023/07/02 00:07:08;;;;;;;12.70;8.30;;;;;;;16.31;94.43;100550.63;5056751;28;20119;-73
2023/07/02 00:09:33;;;;;;;15.60;8.63;;;;;;;16.29;93.82;100537.28;5059214;28;20024;-73
2023/07/02 00:11:59;;;;;;;15.20;8.63;;;;;;;16.27;93.29;100536.56;5055730;28;20494;-70
2023/07/02 00:14:24;;;;;;;13.68;8.20;;;;;;;16.25;93.01;100541.19;5061437;28;20040;-74
2023/07/02 00:16:49;;;;;;;13.93;8.70;;;;;;;16.23;93.66;100537.78;5059470;28;20031;-73
2023/07/02 00:19:15;;;;;;;14.05;8.55;;;;;;;16.21;92.80;100534.34;5058386;28;20032;-71
2023/07/02 00:21:41;;;;;;;11.90;8.38;;;;;;;16.17;93.70;100546.31;5057587;28;20277;-73
2023/07/02 00:24:10;;;;;;;12.85;9.05;;;;;;;16.15;94.08;100537.53;5050417;28;20075;-70
2023/07/02 00:26:40;;;;;;;16.55;9.68;;;;;;;16.17;93.45;100547.16;5055826;28;20024;-70
2023/07/02 00:29:09;;;;;;;15.27;9.90;;;;;;;16.16;92.92;100536.56;5062640;28;20043;-74
2023/07/02 00:31:35;;;;;;;14.35;9.07;;;;;;;16.15;93.81;100535.72;5054794;28;20548;-73
2023/07/02 00:34:01;;;;;;;14.38;9.80;;;;;;;16.14;93.21;100536.69;5059448;28;20117;-74
2023/07/02 00:36:27;;;;;;;15.45;9.85;;;;;;;16.13;92.91;100548.38;5056826;28;20037;-70
2023/07/02 00:38:53;;;;;;;17.27;10.63;;;;;;;16.12;93.44;100540.47;5055057;28;20016;-73
2023/07/02 00:41:18;;;;;;;17.65;10.98;;;;;;;16.13;93.12;100540.34;5053983;28;20025;-70
2023/07/02 00:43:44;;;;;;;15.95;9.95;;;;;;;16.11;93.00;100539.63;5057167;28;20040;-74
2023/07/02 00:46:19;;;;;;;20.77;11.30;;;;;;;16.10;92.95;100537.06;5054992;28;20028;-72
2023/07/02 00:48:50;;;;;;;17.33;10.98;;;;;;;16.09;93.21;100536.22;5061680;28;20059;-73
2023/07/02 00:51:18;;;;;;;17.13;10.98;;;;;;;16.09;92.29;100538.00;5058467;28;20029;-72
2023/07/02 00:53:49;;;;;;;20.13;12.05;;;;;;;16.09;92.61;100525.47;5054910;28;20051;-73
2023/07/02 00:56:14;;;;;;;17.63;11.20;;;;;;;16.08;92.32;100539.84;5060040;28;20043;-74
2023/07/02 00:58:50;;;;;;;17.00;11.88;;;;;;;16.08;93.18;100544.38;5060290;28;20020;-73
2023/07/02 01:01:24;;;;;;;20.30;11.85;;;;;;;16.06;92.17;100546.34;5060197;28;20121;-71
2023/07/02 01:04:03;;;;;;;20.23;13.13;;;;;;;16.05;92.71;100556.22;5057864;28;20074;-75
2023/07/02 01:06:45;;;;;;;17.25;11.55;;;;;;;16.02;92.91;100552.91;5053227;28;20043;-71
2023/07/02 01:09:10;;;;;;;22.13;13.98;;;;;;;15.99;92.74;100551.31;5058458;28;20071;-74
2023/07/02 01:11:45;;;;;;;19.40;12.95;;;;;;;16.00;92.92;100549.47;5058504;28;20134;-74
2023/07/02 01:14:22;;;;;;;18.38;12.10;;;;;;;15.97;92.78;100555.06;5058504;28;20028;-74
2023/07/02 01:16:50;;;;;;;23.02;12.77;;;;;;;15.89;93.39;100555.69;5053980;28;20036;-71
2023/07/02 01:19:26;;;;;;;18.80;12.70;;;;;;;15.86;93.51;100556.78;5060105;28;20027;-71
2023/07/02 01:21:52;;;;;;;23.30;13.52;;;;;;;15.84;93.63;100555.19;5053679;28;20625;-71
2023/07/02 01:24:17;;;;;;;22.40;13.48;;;;;;;15.75;94.09;100551.38;5058443;28;20387;-73
2023/07/02 01:26:45;;;;;;;24.50;14.07;;;;;;;15.72;93.84;100570.41;5057358;28;20083;-73
2023/07/02 01:29:17;;;;;;;21.70;14.65;;;;;;;15.66;94.62;100565.50;5061379;28;20024;-71
2023/07/02 01:31:43;;;;;;;24.02;15.23;;;;;;;15.64;95.09;100557.59;5058261;28;20027;-75
2023/07/02 01:34:09;;;;;;;24.17;14.20;;;;;;;15.60;94.89;100563.28;5063679;28;20041;-72
2023/07/02 01:36:35;;;;;;;21.73;14.43;;;;;;;15.61;94.79;100567.66;5061960;28;20280;-71
2023/07/02 01:39:00;;;;;;;24.73;15.68;;;;;;;15.63;94.89;100577.31;5063352;28;20036;-75
2023/07/02 01:41:25;;;;;;;25.90;15.15;;;;;;;15.64;95.36;100562.06;5060306;28;20573;-74
2023/07/02 01:43:51;;;;;;;22.77;14.50;;;;;;;15.65;95.11;100575.38;5060120;28;20021;-73
2023/07/02 01:46:16;;;;;;;25.25;14.45;;;;;;;15.66;94.76;100570.88;5060200;28;20548;-72
2023/07/02 01:48:42;;;;;;;25.23;15.30;;;;;;;15.67;95.13;100575.25;5061067;28;20031;-74
2023/07/02 01:51:10;;;;;;;23.75;15.20;;;;;;;15.64;94.68;100578.16;5057745;28;20548;-70
2023/07/02 01:53:36;;;;;;;23.40;16.17;;;;;;;15.61;95.84;100581.94;5061649;28;20085;-75
2023/07/02 01:56:01;;;;;;;26.55;16.17;;;;;;;15.58;95.79;100582.16;5057684;28;20028;-74
2023/07/02 01:58:26;;;;;;;25.05;15.52;;;;;;;15.56;96.05;100580.56;5060927;28;20212;-72
2023/07/02 02:00:52;;;;;;;24.60;15.85;;;;;;;15.57;96.02;100584.97;5059334;28;20040;-72
2023/07/02 02:03:17;;;;;;;28.42;16.63;;;;;;;15.55;96.25;100584.19;5078231;28;20033;-73
2023/07/02 02:05:42;;;;;;;24.80;16.50;;;;;;;15.50;96.43;100581.03;5057530;28;20467;-72
2023/07/02 02:08:08;;;;;;;27.63;17.33;;;;;;;15.45;97.18;100582.22;5062945;28;20047;-71
2023/07/02 02:10:33;;;;;;;26.10;16.35;;;;;;;15.47;96.63;100584.81;5063392;28;20039;-74
2023/07/02 02:12:59;;;;;;;26.48;17.33;;;;;;;15.42;97.33;100587.84;5062552;28;20028;-72
2023/07/02 02:15:24;;;;;;;23.88;16.75;;;;;;;15.40;97.42;100589.75;5058374;28;20059;-71
2023/07/02 02:17:50;;;;;;;25.85;17.13;;;;;;;15.44;97.73;100580.53;5060876;28;20028;-73
2023/07/02 02:20:16;;;;;;;25.27;16.90;;;;;;;15.43;97.60;100584.19;5061989;28;20060;-73
2023/07/02 02:22:41;;;;;;;29.05;17.05;;;;;;;15.47;97.66;100581.25;5055815;28;20158;-74
2023/07/02 02:25:08;;;;;;;29.02;17.40;;;;;;;15.45;97.93;100584.91;5058190;28;20028;-72
2023/07/02 02:27:33;;;;;;;30.02;19.27;;;;;;;15.43;97.82;100586.00;5057205;28;20108;-75
2023/07/02 02:29:59;;;;;;;25.40;17.38;;;;;;;15.39;98.48;100587.22;5060384;28;20032;-71
2023/07/02 02:32:24;;;;;;;28.92;17.67;;;;;;;15.42;98.33;100584.28;5063175;28;20483;-74
2023/07/02 02:34:50;;;;;;;26.55;17.35;;;;;;;15.46;98.27;100593.81;5057577;28;20284;-75
2023/07/02 02:37:15;;;;;;;28.58;17.90;;;;;;;15.42;98.65;100585.16;5060774;28;20058;-74
2023/07/02 02:39:40;;;;;;;24.45;17.88;;;;;;;15.32;98.60;100573.41;5059378;28;20047;-71
2023/07/02 02:42:06;;;;;;;27.60;18.08;;;;;;;15.25;99.41;100582.84;5062442;28;20024;-74
2023/07/02 02:44:32;;;;;;;31.35;18.20;;;;;;;15.18;99.57;100592.34;5053751;28;20123;-74
2023/07/02 02:46:57;;;;;;;31.05;18.13;;;;;;;15.14;100.00;100590.88;5060641;28;20028;-74
2023/07/02 02:49:23;;;;;;;30.10;18.83;;;;;;;15.16;100.00;100592.44;5061984;28;20021;-72
2023/07/02 02:51:48;;;;;;;30.05;19.15;;;;;;;15.15;100.00;100598.78;5062364;28;20039;-73
2023/07/02 02:54:14;;;;;;;26.75;18.33;;;;;;;15.13;100.00;100594.50;5058839;28;20506;-74
2023/07/02 02:56:39;;;;;;;26.90;18.40;;;;;;;15.14;100.00;100606.94;5062085;28;20032;-74
2023/07/02 02:59:05;;;;;;;29.23;19.35;;;;;;;15.16;100.00;100599.63;5061563;28;20016;-74
2023/07/02 03:01:31;;;;;;;29.80;18.33;;;;;;;15.20;100.00;100609.16;5062495;28;20028;-72
2023/07/02 03:03:58;;;;;;;29.58;19.75;;;;;;;15.17;100.00;100614.75;5055788;28;20059;-72
2023/07/02 03:06:24;;;;;;;32.13;18.73;;;;;;;15.17;100.00;100618.31;5057418;28;20040;-72
2023/07/02 03:08:50;;;;;;;29.33;20.00;;;;;;;15.14;100.00;100623.88;5059554;28;20024;-73
2023/07/02 03:11:15;;;;;;;31.85;18.77;;;;;;;15.11;100.00;100626.78;5057339;28;20499;-72
2023/07/02 03:13:41;;;;;;;28.95;19.08;;;;;;;15.00;100.00;100621.34;5060705;28;20048;-74
2023/07/02 03:16:06;;;;;;;30.90;18.90;;;;;;;14.89;100.00;100623.97;5057932;28;20039;-74
2023/07/02 03:18:32;;;;;;;32.40;19.75;;;;;;;14.83;100.00;100632.44;5056603;28;20036;-71
2023/07/02 03:20:57;;;;;;;31.42;20.23;;;;;;;14.79;100.00;100634.47;5060535;28;20115;-74
2023/07/02 03:23:23;;;;;;;30.95;18.48;;;;;;;14.72;100.00;100637.72;5055882;28;20039;-75
2023/07/02 03:25:48;;;;;;;31.00;19.15;;;;;;;14.70;100.00;100643.16;5057293;28;20517;-75
2023/07/02 03:28:14;;;;;;;29.27;19.13;;;;;;;14.62;100.00;100643.69;5056260;28;20544;-74
2023/07/02 03:30:39;;;;;;;31.20;19.75;;;;;;;14.62;100.00;100646.38;5059677;28;20090;-71
2023/07/02 03:33:04;;;;;;;29.30;18.90;;;;;;;14.61;100.00;100647.34;5057834;28;20522;-74
2023/07/02 03:35:30;;;;;;;29.77;18.73;;;;;;;14.64;100.00;100648.97;5062312;28;20035;-71
2023/07/02 03:37:57;;;;;;;27.33;17.77;;;;;;;14.64;100.00;100657.88;5059068;28;20052;-74
2023/07/02 03:40:23;;;;;;;29.40;18.13;;;;;;;14.66;100.00;100649.72;5055409;28;20040;-75
2023/07/02 03:42:48;;;;;;;27.98;17.38;;;;;;;14.72;99.62;100659.16;5053790;28;20044;-75
2023/07/02 03:45:14;;;;;;;29.27;16.83;;;;;;;14.74;98.90;100658.06;5056508;28;20115;-73
2023/07/02 03:47:42;;;;;;;26.17;16.52;;;;;;;14.77;96.96;100667.72;5055206;28;20525;-72
2023/07/02 03:50:12;;;;;;;26.60;16.50;;;;;;;14.79;96.36;100666.63;5057192;28;20035;-72
2023/07/02 03:52:37;;;;;;;25.98;16.20;;;;;;;14.85;94.64;100660.84;5055098;28;20119;-73
2023/07/02 03:55:03;;;;;;;24.98;15.20;;;;;;;14.81;93.55;100670.06;5054383;28;20025;-76
2023/07/02 03:57:29;;;;;;;23.40;15.18;;;;;;;14.82;93.55;100671.75;5053685;28;20203;-73
2023/07/02 03:59:54;;;;;;;24.10;14.82;;;;;;;14.78;92.75;100672.09;5054645;28;20506;-75
2023/07/02 04:02:19;;;;;;;25.55;14.45;;;;;;;14.79;91.83;100674.66;5055699;28;20418;-73
2023/07/02 04:04:45;;;;;;;25.52;14.70;;;;;;;14.78;91.14;100672.94;5053483;28;20494;-71
2023/07/02 04:07:10;;;;;;;22.15;13.65;;;;;;;14.68;91.32;100680.78;5051595;28;20021;-73
2023/07/02 04:09:36;;;;;;;25.27;14.55;;;;;;;14.65;91.83;100683.69;5071793;28;20320;-74
2023/07/02 04:12:01;;;;;;;27.20;15.20;;;;;;;14.60;92.13;100674.25;5061542;28;20099;-71
2023/07/02 04:14:27;;;;;;;26.08;14.98;;;;;;;14.56;91.47;100687.00;5056437;28;20040;-75
2023/07/02 04:16:52;;;;;;;24.80;14.90;;;;;;;14.55;91.89;100682.63;5052745;28;20036;-74
2023/07/02 04:19:17;;;;;;;27.30;15.00;;;;;;;14.54;92.21;100680.03;5061105;28;20035;-73
2023/07/02 04:21:43;;;;;;;23.90;14.45;;;;;;;14.54;91.85;100678.22;5056873;28;20045;-74
2023/07/02 04:24:08;;;;;;;28.13;16.05;;;;;;;14.60;92.35;100687.66;5058263;28;20055;-72
2023/07/02 04:26:33;;;;;;;26.17;14.82;;;;;;;14.64;92.45;100684.66;5059212;28;20403;-71
2023/07/02 04:28:59;;;;;;;26.73;16.27;;;;;;;14.68;92.72;100691.50;5061215;28;20036;-76
2023/07/02 04:31:25;;;;;;;26.60;17.13;;;;;;;14.69;92.80;100687.00;5054891;28;20033;-75
2023/07/02 04:33:50;;;;;;;27.98;16.27;;;;;;;14.73;93.42;100683.13;5057332;28;20021;-72
2023/07/02 04:36:15;;;;;;;24.70;16.10;;;;;;;14.75;93.40;100691.91;5058209;28;20029;-74
2023/07/02 04:38:41;;;;;;;26.45;16.40;;;;;;;14.71;92.66;100690.41;5060126;28;20103;-75
2023/07/02 04:41:06;;;;;;;23.15;15.75;;;;;;;14.73;92.59;100698.38;5053324;28;20122;-74
2023/07/02 04:43:33;;;;;;;28.23;16.50;;;;;;;14.73;93.10;100699.22;5052821;28;20028;-74
2023/07/02 04:45:58;;;;;;;25.95;16.02;;;;;;;14.75;92.07;100697.28;5059834;28;20411;-74
2023/07/02 04:48:24;;;;;;;27.85;16.23;;;;;;;14.79;91.45;100692.56;5061440;28;20032;-72
2023/07/02 04:50:49;;;;;;;28.17;15.93;;;;;;;14.78;91.30;100691.69;5059898;28;20028;-75
2023/07/02 04:53:15;;;;;;;21.65;15.85;;;;;;;14.77;91.18;100698.03;5060692;28;20443;-75
2023/07/02 04:55:43;;;;;;;24.27;16.13;;;;;;;14.74;92.46;100705.44;5055274;28;20490;-72
2023/07/02 04:58:09;;;;;;;26.77;15.77;;;;;;;14.74;91.31;100700.91;5058537;28;20043;-74
2023/07/02 05:00:34;;;;;;;28.05;15.88;;;;;;;14.79;91.82;100705.94;5057200;28;20021;-76
2023/07/02 05:02:59;;;;;;;30.15;16.02;;;;;;;14.79;89.64;100704.13;5061125;28;20119;-75
2023/07/02 05:05:25;;;;;;;25.40;15.27;;;;;;;14.83;90.05;100705.63;5060404;28;20028;-75
2023/07/02 05:07:50;;;;;;;23.65;15.30;;;;;;;14.84;89.68;100714.50;5057672;28;20448;-73
2023/07/02 05:10:16;;;;;;;25.80;15.18;;;;;;;14.90;88.94;100709.59;5059874;28;20041;-76
2023/07/02 05:12:41;;;;;;;25.80;15.00;;;;;;;15.06;87.89;100724.59;5057786;28;20098;-75
2023/07/02 05:15:07;;;;;;;23.48;14.18;;;;;;;15.23;86.84;100723.38;5059959;28;20032;-73
2023/07/02 05:17:34;;;;;;;22.85;14.23;;;;;;;15.33;86.29;100711.00;5060226;28;20028;-72
2023/07/02 05:20:01;;;;;;;25.02;14.00;;;;;;;15.37;84.06;100723.22;5059841;28;20075;-74
2023/07/02 05:22:26;;;;;;;22.20;13.70;;;;;;;15.49;84.04;100724.16;5055690;28;20104;-73
2023/07/02 05:24:51;;;;;;;23.08;13.10;;;;;;;15.57;81.98;100728.00;5061828;28;20024;-75
2023/07/02 05:27:17;;;;;;;22.67;12.13;;;;;;;15.67;80.67;100728.19;5054585;28;20020;-74
2023/07/02 05:29:43;;;;;;;21.45;12.27;;;;;;;15.70;80.02;100736.03;5058555;28;20343;-72
2023/07/02 05:32:08;;;;;;;20.58;13.02;;;;;;;15.68;78.64;100740.66;5057236;28;20025;-73
2023/07/02 05:34:33;;;;;;;21.33;12.75;;;;;;;15.74;76.88;100739.34;5057236;28;20028;-74
2023/07/02 05:36:59;;;;;;;20.95;11.20;;;;;;;15.74;75.74;100736.66;5058336;28;20024;-73
2023/07/02 05:39:24;;;;;;;17.38;10.68;;;;;;;15.74;76.55;100742.88;5058071;28;20593;-73
2023/07/02 05:41:49;;;;;;;20.65;11.50;;;;;;;15.76;74.02;100746.31;5058051;28;20029;-73
2023/07/02 05:44:15;;;;;;;18.77;11.10;;;;;;;15.86;74.60;100752.69;5065628;28;20148;-71
2023/07/02 05:46:40;;;;;;;17.58;10.38;;;;;;;15.99;73.75;100746.41;5059508;28;20119;-73
2023/07/02 05:49:06;;;;;;;18.88;10.07;;;;;;;16.05;72.14;100749.50;5062165;28;20035;-74
2023/07/02 05:51:31;;;;;;;17.80;9.55;;;;;;;16.15;72.91;100753.19;5066668;28;20013;-74
2023/07/02 05:53:57;;;;;;;20.45;10.00;;;;;;;16.23;71.71;100757.16;5064975;28;20017;-73
2023/07/02 05:56:22;;;;;;;15.98;9.48;;;;;;;16.23;70.49;100768.75;5059976;28;20110;-72
2023/07/02 05:58:48;;;;;;;19.70;10.63;;;;;;;16.23;70.00;100762.50;5056126;28;20020;-72
2023/07/02 06:01:14;;;;;;;21.50;10.88;;;;;;;16.34;70.33;100768.75;5052988;28;20044;-76
2023/07/02 06:03:43;;;;;;;17.85;9.50;;;;;;;16.46;71.04;100775.03;5051804;28;20029;-72
2023/07/02 06:06:08;;;;;;;17.15;9.15;;;;;;;16.48;68.89;100770.41;5055524;28;20047;-75
2023/07/02 06:08:34;;;;;;;16.08;9.45;;;;;;;16.56;69.80;100773.38;5054758;28;20025;-73
2023/07/02 06:10:59;;;;;;;14.82;8.85;;;;;;;16.63;68.60;100773.72;5057702;28;20368;-72
2023/07/02 06:13:24;;;;;;;15.32;8.77;;;;;;;16.73;67.86;100776.63;5054699;28;20032;-76
2023/07/02 06:15:50;;;;;;;17.40;9.43;;;;;;;16.89;67.99;100772.63;5059042;28;20498;-75
2023/07/02 06:18:17;;;;;;;17.15;9.30;;;;;;;17.02;67.22;100779.72;5058652;28;20036;-72
2023/07/02 06:20:42;;;;;;;19.30;10.00;;;;;;;17.02;65.89;100782.41;5057606;28;20387;-71
2023/07/02 06:23:08;;;;;;;14.32;8.50;;;;;;;16.92;65.34;100783.09;5062914;28;20049;-73
2023/07/02 06:25:33;;;;;;;19.63;9.15;;;;;;;16.91;65.38;100786.78;5061627;28;20028;-73
2023/07/02 06:27:59;;;;;;;16.25;8.68;;;;;;;16.98;66.03;100780.94;5060765;28;20541;-74
2023/07/02 06:30:25;;;;;;;14.73;8.57;;;;;;;16.96;65.51;100783.72;5055312;28;20029;-76
2023/07/02 06:32:50;;;;;;;14.80;8.43;;;;;;;17.12;65.27;100794.13;5058295;28;20123;-74
2023/07/02 06:35:16;;;;;;;14.95;8.05;;;;;;;17.35;65.07;100789.63;5060197;28;20407;-75
2023/07/02 06:37:41;;;;;;;18.30;8.43;;;;;;;17.42;63.73;100798.91;5057146;28;20028;-74
2023/07/02 06:40:08;;;;;;;15.68;8.10;;;;;;;17.35;63.52;100792.31;5055606;28;20035;-74
2023/07/02 06:42:35;;;;;;;13.32;8.07;;;;;;;17.26;63.85;100791.19;5062250;28;20040;-73
2023/07/02 06:45:01;;;;;;;15.52;8.30;;;;;;;17.32;63.88;100804.16;5062924;28;20016;-75
2023/07/02 06:47:26;;;;;;;17.23;8.27;;;;;;;17.28;62.91;100794.63;5054023;28;20034;-73
2023/07/02 06:49:52;;;;;;;13.93;7.57;;;;;;;17.31;63.56;100810.53;5059685;28;20024;-77
2023/07/02 06:52:18;;;;;;;18.70;8.13;;;;;;;17.26;63.18;100806.47;5060560;28;20202;-73
2023/07/02 06:54:43;;;;;;;16.02;7.72;;;;;;;17.43;63.78;100812.25;5057698;28;20025;-77
2023/07/02 06:57:12;;;;;;;12.60;7.35;;;;;;;17.67;63.23;100814.78;5060012;28;20399;-76
2023/07/02 06:59:38;;;;;;;14.90;6.80;;;;;;;17.85;62.43;100814.31;5063786;28;20052;-77
2023/07/02 07:02:03;;;;;;;14.68;8.10;;;;;;;18.14;62.78;100818.16;5060691;28;20110;-76
2023/07/02 07:04:29;;;;;;;13.68;7.22;;;;;;;18.33;61.53;100824.69;5061337;28;20059;-71
2023/07/02 07:06:55;;;;;;;15.93;8.38;;;;;;;18.55;61.55;100827.28;5055148;28;20390;-76
2023/07/02 07:09:21;;;;;;;14.25;7.53;;;;;;;18.62;60.36;100822.22;5060476;28;20025;-72
2023/07/02 07:11:47;;;;;;;16.90;8.32;;;;;;;18.60;60.00;100827.75;5060032;28;20036;-77
2023/07/02 07:14:12;;;;;;;11.82;7.97;;;;;;;18.60;60.46;100830.47;5062985;28;20017;-71
2023/07/02 07:16:37;;;;;;;14.48;7.97;;;;;;;18.78;59.38;100830.75;5052675;28;20099;-77
2023/07/02 07:19:03;;;;;;;21.45;10.82;;;;;;;18.74;59.31;100832.00;5061066;28;20462;-74
2023/07/02 07:21:28;;;;;;;14.20;7.82;;;;;;;18.69;58.69;100836.91;5057596;28;20052;-71
2023/07/02 07:23:54;;;;;;;16.15;7.90;;;;;;;18.67;57.88;100830.78;5054645;28;20067;-77
2023/07/02 07:26:19;;;;;;;13.05;6.88;;;;;;;18.70;56.13;100835.09;5059298;28;20491;-73
2023/07/02 07:28:45;;;;;;;13.32;7.30;;;;;;;18.66;56.75;100839.84;5055968;28;20024;-74
2023/07/02 07:31:12;;;;;;;16.13;8.55;;;;;;;18.76;57.05;100843.50;5055481;28;20131;-74
2023/07/02 07:33:38;;;;;;;14.38;7.15;;;;;;;19.09;55.88;100855.06;5057969;28;20020;-75
2023/07/02 07:36:04;;;;;;;17.33;7.95;;;;;;;19.22;56.00;100858.41;5062172;28;20032;-73
2023/07/02 07:38:29;;;;;;;14.18;7.50;;;;;;;19.09;54.47;100857.78;5062297;28;20139;-76
2023/07/02 07:40:55;;;;;;;15.75;7.35;;;;;;;19.15;55.79;100876.16;5055377;28;20055;-74
2023/07/02 07:43:20;;;;;;;13.93;6.90;;;;;;;19.09;55.00;100868.56;5053216;28;20056;-73
2023/07/02 07:45:45;;;;;;;11.57;6.70;;;;;;;19.02;55.00;100864.69;5059823;28;20095;-75
2023/07/02 07:48:11;;;;;;;10.57;6.25;;;;;;;19.05;55.33;100870.66;5062463;28;20086;-75
2023/07/02 07:50:36;;;;;;;12.80;6.75;;;;;;;19.20;55.05;100871.19;5060638;28;20061;-75
2023/07/02 07:53:02;;;;;;;12.10;6.70;;;;;;;19.41;54.72;100880.13;5062717;28;20035;-74
2023/07/02 07:55:27;;;;;;;12.40;6.45;;;;;;;19.46;54.33;100865.38;5057186;28;20024;-74
2023/07/02 07:57:53;;;;;;;11.98;6.80;;;;;;;19.44;53.96;100861.94;5059695;28;20043;-77
2023/07/02 08:00:18;;;;;;;11.73;6.90;;;;;;;19.36;52.95;100871.59;5060879;28;20039;-76
2023/07/02 08:02:46;;;;;;;13.02;6.68;;;;;;;20.01;52.44;100866.72;5057412;28;20023;-72
2023/07/02 08:05:12;;;;;;;10.50;5.63;;;;;;;20.38;51.16;100856.13;5060484;28;20119;-75
2023/07/02 08:07:38;;;;;;;11.25;6.90;;;;;;;20.09;52.47;100866.03;5063489;28;20031;-76
2023/07/02 08:10:04;;;;;;;11.60;6.13;;;;;;;19.85;52.93;100875.34;5052107;28;20595;-76
2023/07/02 08:12:29;;;;;;;11.32;6.30;;;;;;;19.89;53.93;100879.50;5056454;28;20070;-74
2023/07/02 08:14:55;;;;;;;9.98;5.97;;;;;;;20.30;52.53;100884.84;5055527;28;20403;-71
2023/07/02 08:17:21;;;;;;;11.27;6.38;;;;;;;21.17;50.33;100874.06;5059499;28;20032;-76
2023/07/02 08:19:46;;;;;;;11.63;6.00;;;;;;;21.39;49.14;100872.88;5055734;28;20089;-71
2023/07/02 08:22:12;;;;;;;12.23;6.63;;;;;;;21.84;49.71;100881.13;5055456;28;20094;-77
2023/07/02 08:24:38;;;;;;;11.55;6.57;;;;;;;21.67;48.61;100871.06;5056402;28;20451;-73
2023/07/02 08:27:05;;;;;;;11.55;6.10;;;;;;;21.78;49.21;100884.44;5052091;28;20052;-76
2023/07/02 08:29:30;;;;;;;11.95;7.60;;;;;;;22.21;48.69;100882.94;5057552;28;20024;-72
2023/07/02 08:31:56;;;;;;;11.40;6.28;;;;;;;22.96;46.49;100869.94;5050228;28;20340;-77
2023/07/02 08:34:21;;;;;;;9.93;5.63;;;;;;;23.19;45.79;100883.84;5060885;28;20047;-77
2023/07/02 08:36:47;;;;;;;10.05;6.32;;;;;;;22.94;45.51;100892.81;5052443;28;20035;-77
2023/07/02 08:39:12;;;;;;;11.13;6.57;;;;;;;22.55;44.21;100893.13;5061625;28;20068;-75
2023/07/02 08:41:48;;;;;;;11.45;6.20;;;;;;;22.01;47.26;100901.13;5052884;28;20475;-77
2023/07/02 08:44:14;;;;;;;15.65;6.35;;;;;;;21.25;46.92;100893.13;5057923;28;20115;-76
2023/07/02 08:46:44;;;;;;;18.45;6.60;;;;;;;21.30;48.47;100904.38;5056368;28;20479;-76
2023/07/02 08:49:09;;;;;;;11.60;5.85;;;;;;;21.29;45.99;100902.66;5053814;28;20043;-75
2023/07/02 08:51:35;;;;;;;10.88;6.43;;;;;;;20.92;47.77;100907.97;5059758;28;20024;-77
2023/07/02 08:54:02;;;;;;;13.73;6.18;;;;;;;21.38;48.63;100900.97;5055698;28;20663;-76
2023/07/02 08:56:27;;;;;;;11.00;6.43;;;;;;;21.57;47.10;100910.88;5058915;28;20043;-74
2023/07/02 08:58:53;;;;;;;10.25;6.07;;;;;;;21.55;46.97;100918.31;5071959;28;20025;-73
2023/07/02 09:01:18;;;;;;;10.43;6.22;;;;;;;21.54;46.30;100906.63;5058988;28;20587;-77
2023/07/02 09:03:44;;;;;;;10.82;5.78;;;;;;;21.55;45.50;100910.19;5057646;28;20020;-72
2023/07/02 09:06:13;;;;;;;11.75;6.28;;;;;;;21.52;44.37;100911.31;5059850;28;20025;-72
2023/07/02 09:08:39;;;;;;;8.88;5.85;;;;;;;21.71;43.99;100898.72;5060143;28;20037;-77
2023/07/02 09:11:19;;;;;;;23.75;7.32;;;;;;;22.98;43.45;100897.78;5054763;28;20043;-74
2023/07/02 09:14:00;;;;;;;48.10;9.18;;;;;;;22.95;43.15;100911.69;5054909;28;20077;-76
2023/07/02 09:16:29;;;;;;;12.38;6.20;;;;;;;22.54;43.78;100913.13;5050791;28;20071;-77
2023/07/02 09:18:58;;;;;;;13.32;6.13;;;;;;;22.56;43.29;100911.09;5056989;28;20227;-78
2023/07/02 09:21:26;;;;;;;14.82;6.55;;;;;;;22.40;43.46;100913.63;5053846;28;20045;-71
2023/07/02 09:23:51;;;;;;;10.93;5.65;;;;;;;21.81;43.43;100902.22;5054756;28;20542;-79
2023/07/02 09:26:23;;;;;;;10.35;5.63;;;;;;;21.45;44.75;100910.22;5054674;28;20108;-78
2023/07/02 09:28:48;;;;;;;10.52;6.32;;;;;;;21.30;45.53;100906.22;5059667;28;20012;-72
2023/07/02 09:31:14;;;;;;;10.27;5.90;;;;;;;21.18;46.64;100902.81;5056105;28;20495;-77
2023/07/02 09:33:40;;;;;;;9.93;5.70;;;;;;;21.00;46.04;100913.53;5056302;28;20561;-76
2023/07/02 09:36:05;;;;;;;10.23;6.07;;;;;;;20.79;45.35;100908.28;5054778;28;20043;-75
2023/07/02 09:38:31;;;;;;;9.98;6.50;;;;;;;20.77;46.03;100894.03;5054645;28;20094;-77
2023/07/02 09:40:57;;;;;;;11.00;5.97;;;;;;;20.88;45.51;100883.06;5054660;28;20025;-73
2023/07/02 09:43:23;;;;;;;11.18;6.25;;;;;;;22.87;43.14;100896.13;5058011;28;20066;-74
2023/07/02 09:45:52;;;;;;;9.60;5.60;;;;;;;25.13;39.25;100893.91;5057982;28;20029;-73
2023/07/02 09:48:23;;;;;;;9.57;5.60;;;;;;;25.16;38.98;100882.66;5060690;28;20039;-70
2023/07/02 09:50:51;;;;;;;10.10;5.57;;;;;;;24.35;37.16;100911.47;5062038;28;20013;-76
2023/07/02 09:53:17;;;;;;;11.73;5.60;;;;;;;23.56;38.66;100907.19;5063147;28;20016;-70
2023/07/02 09:55:43;;;;;;;9.18;5.72;;;;;;;22.87;40.00;100909.72;5058469;28;20016;-71
2023/07/02 09:58:08;;;;;;;8.77;5.53;;;;;;;22.17;41.05;100913.22;5060064;28;20032;-70
2023/07/02 10:00:35;;;;;;;8.80;5.65;;;;;;;21.76;43.02;100909.97;5062442;28;20033;-72
2023/07/02 10:03:00;;;;;;;11.45;6.25;;;;;;;21.56;43.25;100906.47;5060770;28;20036;-70
2023/07/02 10:05:29;;;;;;;10.55;6.07;;;;;;;21.23;43.90;100922.19;5057537;28;20028;-75
2023/07/02 10:07:56;;;;;;;9.55;5.75;;;;;;;20.88;45.32;100920.94;5060041;28;20016;-73
2023/07/02 10:10:31;;;;;;;11.45;6.38;;;;;;;20.74;46.73;100936.75;5061758;28;20025;-73
2023/07/02 10:12:57;;;;;;;12.65;6.15;;;;;;;20.37;45.53;100934.69;5062174;28;20036;-71
2023/07/02 10:15:27;;;;;;;11.07;5.55;;;;;;;21.10;45.77;100927.91;5062105;28;20039;-70
2023/07/02 10:18:01;;;;;;;11.60;6.05;;;;;;;23.02;41.58;100929.03;5067294;28;20122;-71
2023/07/02 10:20:40;;;;;;;11.07;5.95;;;;;;;24.09;40.75;100933.31;5063093;28;20028;-71
2023/07/02 10:23:08;;;;;;;9.13;5.85;;;;;;;25.55;38.00;100920.94;5058502;28;20310;-72
2023/07/02 10:25:36;;;;;;;11.35;5.95;;;;;;;26.62;35.14;100924.09;5058284;28;20029;-73
2023/07/02 10:28:22;;;;;;;9.60;5.30;;;;;;;26.50;36.41;100924.53;5063659;28;20092;-72
2023/07/02 10:30:47;;;;;;;10.38;5.60;;;;;;;25.66;35.34;100931.44;5064106;28;20021;-72
2023/07/02 10:33:17;;;;;;;12.13;6.10;;;;;;;26.32;34.63;100927.47;5056175;28;20552;-73
2023/07/02 10:35:46;;;;;;;11.02;5.95;;;;;;;26.73;32.26;100940.06;5059499;28;20082;-72
2023/07/02 10:38:23;;;;;;;11.32;6.15;;;;;;;26.58;34.18;100937.25;5061269;28;20536;-71
2023/07/02 10:41:00;;;;;;;10.55;5.93;;;;;;;26.07;33.65;100942.25;5057900;28;20016;-74
2023/07/02 10:43:32;;;;;;;10.90;6.28;;;;;;;24.83;34.42;100951.56;5060539;28;20211;-75
2023/07/02 10:46:01;;;;;;;14.68;5.95;;;;;;;23.97;36.68;100956.34;5060701;28;20036;-73
2023/07/02 10:48:26;;;;;;;12.77;5.95;;;;;;;23.34;37.82;100950.16;5063836;28;20024;-72
2023/07/02 10:50:51;;;;;;;12.52;6.35;;;;;;;23.00;39.05;100954.63;5061090;28;20073;-73
2023/07/02 10:53:18;;;;;;;11.55;6.60;;;;;;;23.83;38.00;100958.69;5057949;28;20348;-73
2023/07/02 10:55:44;;;;;;;11.30;6.13;;;;;;;26.09;34.97;100942.94;5059578;28;20021;-71
2023/07/02 10:58:15;;;;;;;11.00;6.65;;;;;;;26.94;32.66;100945.69;5060759;28;20025;-74
2023/07/02 11:00:45;;;;;;;10.90;6.38;;;;;;;27.63;32.23;100939.28;5056492;28;20024;-72
2023/07/02 11:03:19;;;;;;;10.38;6.40;;;;;;;27.94;31.76;100945.47;5058180;28;20028;-72
2023/07/02 11:05:45;;;;;;;11.93;6.55;;;;;;;29.22;30.31;100936.66;5062785;28;20495;-72
2023/07/02 11:08:10;;;;;;;10.95;6.47;;;;;;;30.14;28.01;100935.59;5061087;28;20505;-72
2023/07/02 11:10:35;;;;;;;11.82;6.47;;;;;;;31.12;27.04;100930.59;5060920;28;20028;-74